createdAt,value
2023-01-04T00:04:06.293Z,9.38
2023-01-04T00:24:06.247Z,9.38
2023-01-04T00:44:06.227Z,9.38
2023-01-04T01:04:06.342Z,9.37
2023-01-04T01:44:06.216Z,9.36
2023-01-04T02:24:06.240Z,9.35
2023-01-04T02:44:06.179Z,9.35
2023-01-04T03:24:06.180Z,9.34
2023-01-04T03:44:06.155Z,9.34
2023-01-04T04:04:06.171Z,9.33
2023-01-04T04:24:06.188Z,9.33
2023-01-04T04:44:06.164Z,9.33
2023-01-04T05:04:06.171Z,9.32
2023-01-04T05:24:06.115Z,9.32
2023-01-04T05:44:06.105Z,9.32
2023-01-04T06:24:06.066Z,9.31
2023-01-04T06:44:06.050Z,9.31
2023-01-04T07:04:06.068Z,9.31
2023-01-04T07:24:06.022Z,9.31
2023-01-04T07:44:12.311Z,9.31
2023-01-04T08:04:06.088Z,9.3
2023-01-04T08:24:06.008Z,9.3
2023-01-04T08:44:05.240Z,9.3
2023-01-04T09:04:06.096Z,9.3
2023-01-04T09:24:05.951Z,9.3
2023-01-04T09:44:05.936Z,9.29
2023-01-04T10:04:05.964Z,9.29
2023-01-04T10:24:05.942Z,9.29
2023-01-04T11:04:05.904Z,9.29
2023-01-04T11:24:22.358Z,9.28
2023-01-04T11:44:05.145Z,9.28
2023-01-04T12:04:05.331Z,9.28
2023-01-04T12:44:05.857Z,9.28
2023-01-04T13:04:06.338Z,9.28
2023-01-04T13:24:05.792Z,9.28
2023-01-04T14:04:05.769Z,9.27
2023-01-04T14:24:05.743Z,9.27
2023-01-04T14:44:05.735Z,9.27
2023-01-04T15:04:05.637Z,9.27
2023-01-04T15:24:04.921Z,9.27
2023-01-04T16:04:05.667Z,9.27
2023-01-04T16:24:17.185Z,9.27
2023-01-04T16:44:05.632Z,9.27
2023-01-04T17:04:05.596Z,9.27
2023-01-04T17:24:05.639Z,9.27
2023-01-04T17:44:05.586Z,9.27
2023-01-04T18:04:05.581Z,9.27
2023-01-04T18:24:35.792Z,9.27
2023-01-04T18:44:22.949Z,9.28
2023-01-04T19:04:05.012Z,9.28
2023-01-04T19:24:05.369Z,9.28
2023-01-04T19:44:05.504Z,9.28
2023-01-04T20:04:05.490Z,9.29
2023-01-04T20:24:05.483Z,9.29
2023-01-04T20:44:05.465Z,9.29
2023-01-04T21:04:05.413Z,9.29
2023-01-04T21:24:04.685Z,9.29
2023-01-04T21:44:05.404Z,9.3
2023-01-04T22:04:05.462Z,9.3
2023-01-04T22:24:05.382Z,9.3
2023-01-04T22:44:05.363Z,9.3
2023-01-04T23:04:05.420Z,9.3
2023-01-04T23:24:04.800Z,9.3
2023-01-04T23:44:05.311Z,9.31
